Flight Track Log - Related Links

Times and Time Zones

All times are in EDT time to prevent confusion due to time zone crossing. See the XOJ552 flight status page for this flight to view local times or setup timezone preferences in your user account.

Time Position Orientation Groundspeed Altitude Reporting Facility
EDT Latitude Longitude Course Direction KTS MPH feet Rate Location/Type
Fri 04:18:43 PM 21.3000 -157.9000 51° Northeast 170 196 1,100  Level Honolulu Center
Fri 04:19:44 PM 21.2500 -157.8667 148° Southeast 240 276 4,200 3,471 Climbing Honolulu Center
Fri 04:20:44 PM 21.2000 -157.8000 129° Southeast 270 311 8,100 3,650 Climbing Honolulu Center
Fri 04:21:44 PM 21.1667 -157.7333 118° Southeast 280 322 11,500 2,876 Climbing Honolulu Center
Fri 04:22:45 PM 21.2000 -157.6500 67° East 310 357 13,900 2,430 Climbing Honolulu Center
Fri 04:23:45 PM 21.2333 -157.5500 70° East 330 380 16,400 2,450 Climbing Honolulu Center
Fri 04:24:00 PM 21.1622 -157.1283 51° Northeast  Level FlightAware Approximate
Fri 04:24:45 PM 21.2667 -157.4667 67° East 340 391 18,800  Level Honolulu Center
Fri 04:25:46 PM 21.3167 -157.3667 62° Northeast 350 403 21,300 2,281 Climbing Honolulu Center
Fri 04:26:46 PM 21.3667 -157.2833 57° Northeast 370 426 23,400 2,000 Climbing Honolulu Center
Fri 04:27:46 PM 21.4333 -157.1833 54° Northeast 390 449 25,300 2,033 Climbing Honolulu Center
Fri 04:28:47 PM 21.5000 -157.0833 54° Northeast 400 460 27,500 1,934 Climbing Honolulu Center
Fri 04:29:47 PM 21.5667 -156.9833 54° Northeast 400 460 29,200 1,550 Climbing Honolulu Center
Fri 04:30:47 PM 21.6167 -156.8833 62° Northeast 420 483 30,600 1,300 Climbing Honolulu Center
Fri 04:31:47 PM 21.6833 -156.7667 58° Northeast 440 506 31,800 1,339 Climbing Honolulu Center
Fri 04:32:48 PM 21.7667 -156.6667 48° Northeast 450 518 33,300 1,488 Climbing Honolulu Center
Fri 04:33:48 PM 21.8333 -156.5500 58° Northeast 450 518 34,800 1,190 Climbing Honolulu Center
Fri 04:34:49 PM 21.9000 -156.4333 58° Northeast 450 518 35,700 843 Climbing Honolulu Center
Fri 04:35:49 PM 21.9667 -156.3167 58° Northeast 470 541 36,500 900 Climbing Honolulu Center
Fri 04:36:49 PM 22.0500 -156.2000 52° Northeast 470 541 37,500 992 Climbing Honolulu Center
Fri 04:37:50 PM 22.1167 -156.0833 58° Northeast 470 541 38,500 1,041 Climbing Honolulu Center
Fri 04:38:50 PM 22.2000 -155.9667 52° Northeast 470 541 39,600 850 Climbing Honolulu Center
Fri 04:39:50 PM 22.2667 -155.8500 58° Northeast 460 529 40,200 694 Climbing Honolulu Center
Fri 04:40:51 PM 22.3333 -155.7333 58° Northeast 460 529 41,000 397 Climbing Honolulu Center
Fri 04:41:51 PM 22.4000 -155.6167 58° Northeast 460 529 41,000  Level Honolulu Center
Fri 04:42:51 PM 22.4833 -155.5000 52° Northeast 460 529 41,000  Level Honolulu Center
Fri 04:43:52 PM 22.5500 -155.3833 58° Northeast 460 529 41,000  Level Honolulu Center
Fri 04:44:52 PM 22.6167 -155.2667 58° Northeast 470 541 41,000  Level Honolulu Center
Fri 04:45:52 PM 22.6833 -155.1500 58° Northeast 460 529 41,000  Level Honolulu Center
Fri 04:46:53 PM 22.7667 -155.0333 52° Northeast 460 529 41,000  Level Honolulu Center
Fri 04:47:53 PM 22.8333 -154.9167 58° Northeast 460 529 41,000  Level Honolulu Center
Fri 04:48:53 PM 22.9000 -154.8000 58° Northeast 470 541 41,000  Level Honolulu Center
Fri 04:49:54 PM 22.9833 -154.6833 52° Northeast 470 541 41,000  Level Honolulu Center
Fri 04:51:00 PM 23.0588 -154.5518 57° Northeast  Level FlightAware Approximate
Fri 04:58:00 PM 23.5505 -153.7234 57° Northeast  Level FlightAware Approximate
Fri 04:59:00 PM 23.6204 -153.6045 57° Northeast  Level FlightAware Approximate
Fri 05:00:00 PM 23.6902 -153.4855 57° Northeast  Level FlightAware Approximate
Fri 05:01:00 PM 23.7588 -153.3657 61° Northeast  Level FlightAware Approximate
Fri 05:02:00 PM 23.8328 -153.2506 57° Northeast  Level FlightAware Approximate
Fri 05:03:00 PM 23.9034 -153.1320 57° Northeast  Level FlightAware Approximate
Fri 05:04:00 PM 23.9740 -153.0134 57° Northeast  Level FlightAware Approximate
Fri 05:04:06 PM 23.7833 -153.3667 57° Northeast 461 531 41,000  Level Oakland Oceanic (ODAPS)
Fri 05:05:00 PM 24.0445 -152.8945 57° Northeast  Level FlightAware Approximate
Fri 05:06:00 PM 24.1149 -152.7756 57° Northeast  Level FlightAware Approximate
Fri 05:07:00 PM 24.1860 -152.6558 57° Northeast  Level FlightAware Approximate
Fri 05:08:00 PM 24.2570 -152.5359 57° Northeast  Level FlightAware Approximate
Fri 05:09:00 PM 24.3279 -152.4159 57° Northeast  Level FlightAware Approximate
Fri 05:10:00 PM 24.4796 -152.1883 57° Northeast 461 531 41,000  Level FlightAware Transoceanic
Fri 05:11:00 PM 24.5487 -152.0697 57° Northeast 461 531 41,000  Level FlightAware Transoceanic
Fri 05:12:00 PM 24.6178 -151.9510 57° Northeast 461 531 41,000  Level FlightAware Transoceanic
Fri 05:13:00 PM 24.6867 -151.8322 57° Northeast 461 531 41,000  Level FlightAware Transoceanic
Fri 05:14:00 PM 24.7556 -151.7133 58° Northeast 461 531 41,000  Level FlightAware Transoceanic
Fri 05:15:00 PM 24.8243 -151.5942 58° Northeast 461 531 41,000  Level FlightAware Transoceanic
Fri 05:16:00 PM 24.8930 -151.4750 58° Northeast 461 531 41,000  Level FlightAware Transoceanic
Fri 05:17:00 PM 24.9615 -151.3557 58° Northeast 461 531 41,000  Level FlightAware Transoceanic
Fri 05:18:00 PM 25.0300 -151.2362 58° Northeast 461 531 41,000  Level FlightAware Transoceanic
Fri 05:19:00 PM 25.0984 -151.1166 58° Northeast 461 531 41,000  Level FlightAware Transoceanic
Fri 05:20:00 PM 25.1666 -150.9969 58° Northeast 461 531 41,000  Level FlightAware Transoceanic
Fri 05:21:00 PM 25.2348 -150.8770 58° Northeast 461 531 41,000  Level FlightAware Transoceanic
Fri 05:22:00 PM 25.3029 -150.7570 58° Northeast 461 531 41,000  Level FlightAware Transoceanic
Fri 05:23:00 PM 25.3709 -150.6368 58° Northeast 461 531 41,000  Level FlightAware Transoceanic
Fri 05:24:00 PM 25.4388 -150.5166 58° Northeast 461 531 41,000  Level FlightAware Transoceanic
Fri 05:25:00 PM 25.5066 -150.3961 58° Northeast 461 531 41,000  Level FlightAware Transoceanic
Fri 05:26:00 PM 25.5743 -150.2756 58° Northeast 461 531 41,000  Level FlightAware Transoceanic
Fri 05:27:00 PM 25.6418 -150.1549 58° Northeast 461 531 41,000  Level FlightAware Transoceanic
Fri 05:28:00 PM 25.7094 -150.0341 58° Northeast 461 531 41,000  Level FlightAware Transoceanic
Fri 05:29:00 PM 25.7767 -149.9131 58° Northeast 461 531 41,000  Level FlightAware Transoceanic
Fri 05:30:00 PM 25.8440 -149.7921 58° Northeast 461 531 41,000  Level FlightAware Transoceanic
Fri 05:31:00 PM 25.9112 -149.6708 58° Northeast 461 531 41,000  Level FlightAware Transoceanic
Fri 05:32:00 PM 25.9783 -149.5494 58° Northeast 461 531 41,000  Level FlightAware Transoceanic
Fri 05:33:00 PM 26.0453 -149.4279 58° Northeast 461 531 41,000  Level FlightAware Transoceanic
Fri 05:34:00 PM 26.1122 -149.3063 59° Northeast 461 531 41,000  Level FlightAware Transoceanic
Fri 05:35:00 PM 26.1790 -149.1845 59° Northeast 461 531 41,000  Level FlightAware Transoceanic
Fri 05:36:00 PM 26.2457 -149.0626 59° Northeast 461 531 41,000  Level FlightAware Transoceanic
Fri 05:37:00 PM 26.3123 -148.9405 59° Northeast 461 531 41,000  Level FlightAware Transoceanic
Fri 05:38:00 PM 26.3787 -148.8183 59° Northeast 461 531 41,000  Level FlightAware Transoceanic
Fri 05:39:00 PM 26.4451 -148.6959 59° Northeast 461 531 41,000  Level FlightAware Transoceanic
Fri 05:40:00 PM 26.5114 -148.5735 59° Northeast 461 531 41,000  Level FlightAware Transoceanic
Fri 05:41:00 PM 26.5775 -148.4508 59° Northeast 461 531 41,000  Level FlightAware Transoceanic
Fri 05:42:00 PM 26.6436 -148.3280 59° Northeast 461 531 41,000  Level FlightAware Transoceanic
Fri 05:43:00 PM 26.7096 -148.2051 59° Northeast 461 531 41,000  Level FlightAware Transoceanic
Fri 05:44:00 PM 26.7754 -148.0821 59° Northeast 461 531 41,000  Level FlightAware Transoceanic
Fri 05:45:00 PM 26.8411 -147.9589 59° Northeast 461 531 41,000  Level FlightAware Transoceanic
Fri 05:46:00 PM 26.9068 -147.8355 59° Northeast 461 531 41,000  Level FlightAware Transoceanic
Fri 05:47:00 PM 26.9723 -147.7121 59° Northeast 461 531 41,000  Level FlightAware Transoceanic
Fri 05:48:00 PM 27.0377 -147.5884 59° Northeast 461 531 41,000  Level FlightAware Transoceanic
Fri 05:49:00 PM 27.1030 -147.4646 59° Northeast 461 531 41,000  Level FlightAware Transoceanic
Fri 05:50:00 PM 27.1682 -147.3407 59° Northeast 461 531 41,000  Level FlightAware Transoceanic
Fri 05:51:00 PM 27.2333 -147.2167 59° Northeast 461 531 41,000  Level FlightAware Transoceanic
Fri 05:52:00 PM 27.3104 -147.0695 60° Northeast 461 531 41,000  Level FlightAware Transoceanic
Fri 05:53:00 PM 27.3874 -146.9222 60° Northeast 461 531 41,000  Level FlightAware Transoceanic
Fri 05:54:00 PM 27.4641 -146.7747 60° Northeast 461 531 41,000  Level FlightAware Transoceanic
Fri 05:54:36 PM 27.2333 -147.2167 59° Northeast 480 552 41,000  Level Oakland Oceanic (ODAPS)
Fri 05:55:00 PM 27.5408 -146.6270 60° Northeast 461 531 41,000  Level FlightAware Transoceanic
Fri 05:56:00 PM 27.6173 -146.4790 60° Northeast 461 531 41,000  Level FlightAware Transoceanic
Fri 05:57:00 PM 27.6936 -146.3309 60° Northeast 461 531 41,000  Level FlightAware Transoceanic
Fri 05:58:00 PM 27.7697 -146.1826 60° Northeast 461 531 41,000  Level FlightAware Transoceanic
Fri 05:59:00 PM 27.8457 -146.0340 60° Northeast 461 531 41,000  Level FlightAware Transoceanic
Fri 06:00:00 PM 27.9216 -145.8852 60° Northeast 461 531 41,000  Level FlightAware Transoceanic
Fri 06:01:00 PM 27.9710 -145.7880 60° Northeast 480 552 41,000  Level FlightAware Transoceanic
Fri 06:02:00 PM 28.0373 -145.6571 60° Northeast 480 552 41,000  Level FlightAware Transoceanic
Fri 06:03:00 PM 28.1035 -145.5261 60° Northeast 480 552 41,000  Level FlightAware Transoceanic
Fri 06:04:00 PM 28.1696 -145.3950 60° Northeast 480 552 41,000  Level FlightAware Transoceanic
Fri 06:05:00 PM 28.2356 -145.2637 60° Northeast 480 552 41,000  Level FlightAware Transoceanic
Fri 06:06:00 PM 28.3014 -145.1322 60° Northeast 480 552 41,000  Level FlightAware Transoceanic
Fri 06:07:00 PM 28.3671 -145.0005 60° Northeast 480 552 41,000  Level FlightAware Transoceanic
Fri 06:08:00 PM 28.4327 -144.8687 61° Northeast 480 552 41,000  Level FlightAware Transoceanic
Fri 06:09:00 PM 28.4981 -144.7367 61° Northeast 480 552 41,000  Level FlightAware Transoceanic
Fri 06:10:00 PM 28.5635 -144.6046 61° Northeast 480 552 41,000  Level FlightAware Transoceanic
Fri 06:11:00 PM 28.6287 -144.4723 61° Northeast 480 552 41,000  Level FlightAware Transoceanic
Fri 06:12:00 PM 28.6937 -144.3398 61° Northeast 480 552 41,000  Level FlightAware Transoceanic
Fri 06:13:00 PM 28.7587 -144.2072 61° Northeast 480 552 41,000  Level FlightAware Transoceanic
Fri 06:14:00 PM 28.8235 -144.0744 61° Northeast 480 552 41,000  Level FlightAware Transoceanic
Fri 06:15:00 PM 28.8881 -143.9414 61° Northeast 480 552 41,000  Level FlightAware Transoceanic
Fri 06:16:00 PM 28.9527 -143.8083 61° Northeast 480 552 41,000  Level FlightAware Transoceanic
Fri 06:17:00 PM 29.0171 -143.6750 61° Northeast 480 552 41,000  Level FlightAware Transoceanic
Fri 06:18:00 PM 29.0814 -143.5415 61° Northeast 480 552 41,000  Level FlightAware Transoceanic
Fri 06:19:00 PM 29.1455 -143.4079 61° Northeast 480 552 41,000  Level FlightAware Transoceanic
Fri 06:20:00 PM 29.2096 -143.2741 61° Northeast 480 552 41,000  Level FlightAware Transoceanic
Fri 06:21:00 PM 29.2734 -143.1402 61° Northeast 480 552 41,000  Level FlightAware Transoceanic
Fri 06:22:00 PM 29.3372 -143.0060 61° Northeast 480 552 41,000  Level FlightAware Transoceanic
Fri 06:23:00 PM 29.4008 -142.8717 62° Northeast 480 552 41,000  Level FlightAware Transoceanic
Fri 06:24:00 PM 29.4643 -142.7373 62° Northeast 480 552 41,000  Level FlightAware Transoceanic
Fri 06:25:00 PM 29.5276 -142.6027 62° Northeast 480 552 41,000  Level FlightAware Transoceanic
Fri 06:26:00 PM 29.5909 -142.4679 62° Northeast 480 552 41,000  Level FlightAware Transoceanic
Fri 06:27:00 PM 29.6539 -142.3329 62° Northeast 480 552 41,000  Level FlightAware Transoceanic
Fri 06:28:00 PM 29.7169 -142.1978 62° Northeast 480 552 41,000  Level FlightAware Transoceanic
Fri 06:29:00 PM 29.7797 -142.0624 62° Northeast 480 552 41,000  Level FlightAware Transoceanic
Fri 06:30:00 PM 29.8423 -141.9270 62° Northeast 480 552 41,000  Level FlightAware Transoceanic
Fri 06:31:00 PM 29.9049 -141.7913 62° Northeast 480 552 41,000  Level FlightAware Transoceanic
Fri 06:32:00 PM 29.9672 -141.6555 62° Northeast 480 552 41,000  Level FlightAware Transoceanic
Fri 06:33:00 PM 30.0295 -141.5195 62° Northeast 480 552 41,000  Level FlightAware Transoceanic
Fri 06:34:00 PM 30.0916 -141.3834 62° Northeast 480 552 41,000  Level FlightAware Transoceanic
Fri 06:35:00 PM 30.1536 -141.2470 62° Northeast 480 552 41,000  Level FlightAware Transoceanic
Fri 06:36:00 PM 30.2154 -141.1105 62° Northeast 480 552 41,000  Level FlightAware Transoceanic
Fri 06:37:00 PM 30.2771 -140.9739 62° Northeast 480 552 41,000  Level FlightAware Transoceanic
Fri 06:38:00 PM 30.3386 -140.8370 63° Northeast 480 552 41,000  Level FlightAware Transoceanic
Fri 06:39:00 PM 30.4000 -140.7000 63° Northeast 480 552 41,000  Level FlightAware Transoceanic
Fri 06:40:00 PM 30.4714 -140.5403 63° Northeast 480 552 41,000  Level FlightAware Transoceanic
Fri 06:41:00 PM 30.5426 -140.3803 63° Northeast 480 552 41,000  Level FlightAware Transoceanic
Fri 06:42:00 PM 30.6136 -140.2201 63° Northeast 480 552 41,000 2,963 Level FlightAware Transoceanic
Fri 06:42:21 PM 30.4000 -140.7000 63° Northeast 470 541 45,000  Climbing Oakland Oceanic (ODAPS)
Fri 06:43:00 PM 30.6844 -140.0597 63° Northeast 480 552 41,000 -2,424 Descending FlightAware Transoceanic
Fri 06:44:00 PM 30.7550 -139.8990 63° Northeast 480 552 41,000  Level FlightAware Transoceanic
Fri 06:45:00 PM 30.8254 -139.7381 63° Northeast 480 552 41,000  Level FlightAware Transoceanic
Fri 06:46:00 PM 30.8956 -139.5770 63° Northeast 480 552 41,000  Level FlightAware Transoceanic
Fri 06:47:00 PM 30.9656 -139.4156 63° Northeast 480 552 41,000 2,000 Level FlightAware Transoceanic
Fri 06:48:00 PM 30.8777 -139.6181 63° Northeast 470 541 45,000 2,000 Climbing FlightAware Transoceanic
Fri 06:49:00 PM 30.9368 -139.4821 63° Northeast 470 541 45,000  Level FlightAware Transoceanic
Fri 06:50:00 PM 30.9958 -139.3459 63° Northeast 470 541 45,000  Level FlightAware Transoceanic
Fri 06:51:00 PM 31.0546 -139.2096 63° Northeast 470 541 45,000  Level FlightAware Transoceanic
Fri 06:52:00 PM 31.1132 -139.0731 63° Northeast 470 541 45,000  Level FlightAware Transoceanic
Fri 06:53:00 PM 31.1717 -138.9364 63° Northeast 470 541 45,000  Level FlightAware Transoceanic
Fri 06:54:00 PM 31.2301 -138.7996 64° Northeast 470 541 45,000  Level FlightAware Transoceanic
Fri 06:55:00 PM 31.2883 -138.6626 64° Northeast 470 541 45,000  Level FlightAware Transoceanic
Fri 06:56:00 PM 31.3464 -138.5254 64° Northeast 470 541 45,000  Level FlightAware Transoceanic
Fri 06:57:00 PM 31.4043 -138.3880 64° Northeast 470 541 45,000  Level FlightAware Transoceanic
Fri 06:58:00 PM 31.4621 -138.2505 64° Northeast 470 541 45,000  Level FlightAware Transoceanic
Fri 06:59:00 PM 31.5198 -138.1129 64° Northeast 470 541 45,000  Level FlightAware Transoceanic
Fri 07:00:00 PM 31.5772 -137.9750 64° Northeast 470 541 45,000  Level FlightAware Transoceanic
Fri 07:01:00 PM 31.6346 -137.8370 64° Northeast 470 541 45,000  Level FlightAware Transoceanic
Fri 07:02:00 PM 31.6918 -137.6988 64° Northeast 470 541 45,000  Level FlightAware Transoceanic
Fri 07:03:00 PM 31.7488 -137.5604 64° Northeast 470 541 45,000  Level FlightAware Transoceanic
Fri 07:04:00 PM 31.8057 -137.4219 64° Northeast 470 541 45,000  Level FlightAware Transoceanic
Fri 07:05:00 PM 31.8624 -137.2832 64° Northeast 470 541 45,000  Level FlightAware Transoceanic
Fri 07:06:00 PM 31.9190 -137.1443 64° Northeast 470 541 45,000  Level FlightAware Transoceanic
Fri 07:07:00 PM 31.9755 -137.0052 64° Northeast 470 541 45,000  Level FlightAware Transoceanic
Fri 07:08:00 PM 32.0318 -136.8660 65° Northeast 470 541 45,000  Level FlightAware Transoceanic
Fri 07:09:00 PM 32.0879 -136.7267 65° Northeast 470 541 45,000  Level FlightAware Transoceanic
Fri 07:10:00 PM 32.1439 -136.5871 65° Northeast 470 541 45,000  Level FlightAware Transoceanic
Fri 07:11:00 PM 32.1997 -136.4474 65° Northeast 470 541 45,000  Level FlightAware Transoceanic
Fri 07:12:00 PM 32.2554 -136.3075 65° Northeast 470 541 45,000  Level FlightAware Transoceanic
Fri 07:13:00 PM 32.3109 -136.1674 65° Northeast 470 541 45,000  Level FlightAware Transoceanic
Fri 07:14:00 PM 32.3663 -136.0271 65° Northeast 470 541 45,000  Level FlightAware Transoceanic
Fri 07:15:00 PM 32.4215 -135.8867 65° Northeast 470 541 45,000  Level FlightAware Transoceanic
Fri 07:16:00 PM 32.4766 -135.7461 65° Northeast 470 541 45,000  Level FlightAware Transoceanic
Fri 07:17:00 PM 32.5315 -135.6054 65° Northeast 470 541 45,000  Level FlightAware Transoceanic
Fri 07:18:00 PM 32.5862 -135.4644 65° Northeast 470 541 45,000  Level FlightAware Transoceanic
Fri 07:19:00 PM 32.6408 -135.3233 65° Northeast 470 541 45,000  Level FlightAware Transoceanic
Fri 07:20:00 PM 32.6952 -135.1821 65° Northeast 470 541 45,000  Level FlightAware Transoceanic
Fri 07:21:00 PM 32.7495 -135.0406 66° East 470 541 45,000  Level FlightAware Transoceanic
Fri 07:22:00 PM 32.8036 -134.8990 66° East 470 541 45,000  Level FlightAware Transoceanic
Fri 07:23:00 PM 32.8575 -134.7572 66° East 470 541 45,000  Level FlightAware Transoceanic
Fri 07:24:00 PM 32.9113 -134.6152 66° East 470 541 45,000  Level FlightAware Transoceanic
Fri 07:25:00 PM 32.9650 -134.4731 66° East 470 541 45,000  Level FlightAware Transoceanic
Fri 07:26:00 PM 33.0184 -134.3308 66° East 470 541 45,000  Level FlightAware Transoceanic
Fri 07:27:00 PM 33.0717 -134.1883 66° East 470 541 45,000  Level FlightAware Transoceanic
Fri 07:28:00 PM 33.1249 -134.0457 66° East 470 541 45,000  Level FlightAware Transoceanic
Fri 07:29:00 PM 33.1779 -133.9028 66° East 470 541 45,000  Level FlightAware Transoceanic
Fri 07:30:00 PM 33.2307 -133.7598 66° East 470 541 45,000  Level FlightAware Transoceanic
Fri 07:31:00 PM 33.2833 -133.6167 66° East 470 541 45,000  Level FlightAware Transoceanic
Fri 07:31:16 PM 33.2833 -133.6167 66° East 490 564 45,000  Level Oakland Oceanic (ODAPS)
Fri 07:32:00 PM 33.3390 -133.4646 66° East 470 541 45,000  Level FlightAware Transoceanic
Fri 07:33:00 PM 33.3944 -133.3123 66° East 470 541 45,000  Level FlightAware Transoceanic
Fri 07:34:00 PM 33.4497 -133.1599 67° East 470 541 45,000  Level FlightAware Transoceanic
Fri 07:35:00 PM 33.5047 -133.0072 67° East 470 541 45,000  Level FlightAware Transoceanic
Fri 07:36:00 PM 33.5596 -132.8544 67° East 470 541 45,000  Level FlightAware Transoceanic
Fri 07:37:00 PM 33.7143 -132.4198 67° East 490 564 45,000  Level FlightAware Transoceanic
Fri 07:38:00 PM 33.7673 -132.2693 67° East 490 564 45,000  Level FlightAware Transoceanic
Fri 07:39:00 PM 33.8202 -132.1187 67° East 490 564 45,000  Level FlightAware Transoceanic
Fri 07:40:00 PM 33.8729 -131.9679 67° East 490 564 45,000  Level FlightAware Transoceanic
Fri 07:41:00 PM 33.9254 -131.8169 67° East 490 564 45,000  Level FlightAware Transoceanic
Fri 07:42:00 PM 33.9777 -131.6657 67° East 490 564 45,000  Level FlightAware Transoceanic
Fri 07:43:00 PM 34.0298 -131.5143 67° East 490 564 45,000  Level FlightAware Transoceanic
Fri 07:44:00 PM 34.0818 -131.3628 68° East 490 564 45,000  Level FlightAware Transoceanic
Fri 07:45:00 PM 34.1336 -131.2110 68° East 490 564 45,000  Level FlightAware Transoceanic
Fri 07:46:00 PM 34.1851 -131.0591 68° East 490 564 45,000  Level FlightAware Transoceanic
Fri 07:47:00 PM 34.2365 -130.9070 68° East 490 564 45,000  Level FlightAware Transoceanic
Fri 07:48:00 PM 34.2877 -130.7547 68° East 490 564 45,000  Level FlightAware Transoceanic
Fri 07:49:00 PM 34.3387 -130.6022 68° East 490 564 45,000  Level FlightAware Transoceanic
Fri 07:50:00 PM 34.3895 -130.4495 68° East 490 564 45,000  Level FlightAware Transoceanic
Fri 07:51:00 PM 34.4402 -130.2966 68° East 490 564 45,000  Level FlightAware Transoceanic
Fri 07:52:00 PM 34.4906 -130.1436 68° East 490 564 45,000  Level FlightAware Transoceanic
Fri 07:53:00 PM 34.5409 -129.9904 68° East 490 564 45,000  Level FlightAware Transoceanic
Fri 07:54:00 PM 34.5909 -129.8369 68° East 490 564 45,000  Level FlightAware Transoceanic
Fri 07:55:00 PM 34.6408 -129.6833 69° East 490 564 45,000  Level FlightAware Transoceanic
Fri 07:56:00 PM 34.6905 -129.5296 69° East 490 564 45,000  Level FlightAware Transoceanic
Fri 07:57:00 PM 34.7400 -129.3756 69° East 490 564 45,000  Level FlightAware Transoceanic
Fri 07:58:00 PM 34.7892 -129.2214 69° East 490 564 45,000  Level FlightAware Transoceanic
Fri 07:59:00 PM 34.8383 -129.0671 69° East 490 564 45,000  Level FlightAware Transoceanic
Fri 08:00:00 PM 34.8872 -128.9126 69° East 490 564 45,000  Level FlightAware Transoceanic
Fri 08:01:00 PM 34.9359 -128.7579 69° East 490 564 45,000  Level FlightAware Transoceanic
Fri 08:02:00 PM 34.9844 -128.6030 69° East 490 564 45,000  Level FlightAware Transoceanic
Fri 08:03:00 PM 35.0327 -128.4479 69° East 490 564 45,000  Level FlightAware Transoceanic
Fri 08:04:00 PM 35.0809 -128.2926 69° East 490 564 45,000  Level FlightAware Transoceanic
Fri 08:05:00 PM 35.1288 -128.1372 69° East 490 564 45,000  Level FlightAware Transoceanic
Fri 08:06:00 PM 35.1765 -127.9816 69° East 490 564 45,000  Level FlightAware Transoceanic
Fri 08:07:00 PM 35.2240 -127.8258 70° East 490 564 45,000  Level FlightAware Transoceanic
Fri 08:08:00 PM 35.2713 -127.6698 70° East 490 564 45,000  Level FlightAware Transoceanic
Fri 08:09:00 PM 35.3184 -127.5136 70° East 490 564 45,000  Level FlightAware Transoceanic
Fri 08:10:00 PM 35.3653 -127.3573 70° East 490 564 45,000  Level FlightAware Transoceanic
Fri 08:11:00 PM 35.4120 -127.2008 70° East 490 564 45,000  Level FlightAware Transoceanic
Fri 08:12:00 PM 35.4586 -127.0441 70° East 490 564 45,000  Level FlightAware Transoceanic
Fri 08:13:00 PM 35.5049 -126.8872 70° East 490 564 45,000  Level FlightAware Transoceanic
Fri 08:14:00 PM 35.5510 -126.7301 70° East 490 564 45,000  Level FlightAware Transoceanic
Fri 08:15:00 PM 35.5969 -126.5728 70° East 490 564 45,000  Level FlightAware Transoceanic
Fri 08:15:07 PM 35.6056 -126.5425 67° East 497 572 45,000  Level Oakland Center
Fri 08:16:00 PM 35.6426 -126.4154 70° East 490 564 45,000  Level FlightAware Transoceanic
Fri 08:16:08 PM 35.6614 -126.3567 70° East 488 562 45,000  Level Oakland Center
Fri 08:17:00 PM 35.6880 -126.2578 70° East 490 564 45,000  Level FlightAware Transoceanic
Fri 08:17:09 PM 35.7058 -126.1994 71° East 488 562 45,000  Level Oakland Center
Fri 08:18:00 PM 35.7333 -126.1000 67° East 490 564 45,000  Level FlightAware Transoceanic
Fri 08:18:11 PM 35.7514 -126.0425 70° East 488 562 45,000  Level Oakland Center
Fri 08:19:00 PM 35.7841 -125.9526 67° East 490 564 45,000  Level FlightAware Transoceanic
Fri 08:19:12 PM 35.8133 -125.8933 63° Northeast 491 565 45,000  Level Oakland Center
Fri 08:20:00 PM 35.8346 -125.8050 67° East 490 564 45,000  Level FlightAware Transoceanic
Fri 08:20:13 PM 35.8872 -125.7536 57° Northeast 492 566 45,000  Level Oakland Center
Fri 08:21:15 PM 35.9617 -125.6133 57° Northeast 490 564 45,000  Level Oakland Center
Fri 08:22:16 PM 36.0264 -125.4650 62° Northeast 490 564 45,000  Level Oakland Center
Fri 08:23:17 PM 36.0975 -125.3236 58° Northeast 487 560 45,000 -293 Level Oakland Center
Fri 08:24:19 PM 36.1669 -125.1811 59° Northeast 486 559 44,400 -878 Descending Oakland Center
Fri 08:25:20 PM 36.2503 -125.0078 59° Northeast 488 562 43,200 -1,073 Descending Oakland Center
Fri 08:26:22 PM 36.3200 -124.8639 59° Northeast 487 560 42,200 -976 Descending Oakland Center
Fri 08:27:23 PM 36.3917 -124.7175 59° Northeast 496 571 41,200 -1,024 Descending Oakland Center
Fri 08:28:25 PM 36.4597 -124.5708 60° Northeast 493 567 40,100 -1,805 Descending Oakland Center
Fri 08:29:26 PM 36.5322 -124.4200 59° Northeast 504 580 37,500 -2,607 Descending Oakland Center
Fri 08:30:27 PM 36.6044 -124.2694 59° Northeast 509 586 34,800 -2,634 Descending Oakland Center
Fri 08:31:29 PM 36.6750 -124.1194 60° Northeast 504 580 32,100 -2,585 Descending Oakland Center
Fri 08:32:30 PM 36.7458 -123.9708 59° Northeast 501 577 29,500 -2,780 Descending Oakland Center
Fri 08:33:32 PM 36.8272 -123.7986 59° Northeast 484 557 26,400 -2,634 Descending Oakland Center
Fri 08:34:33 PM 36.8900 -123.6647 60° Northeast 455 524 24,100 -2,262 Descending Oakland Center
Fri 08:35:34 PM 36.9489 -123.5356 60° Northeast 436 502 21,800 -2,195 Descending Oakland Center
Fri 08:36:36 PM 37.0067 -123.4106 60° Northeast 424 488 19,600 -2,146 Descending Oakland Center
Fri 08:37:37 PM 37.0633 -123.2867 60° Northeast 417 480 17,400 -2,146 Descending Oakland Center
Fri 08:38:39 PM 37.1206 -123.1664 59° Northeast 407 468 15,200 -2,098 Descending Oakland Center
Fri 08:39:40 PM 37.1747 -123.0481 60° Northeast 399 459 13,100 -1,951 Descending Oakland Center
Fri 08:40:42 PM 37.2247 -122.9372 60° Northeast 383 441 11,200 -1,707 Descending Oakland Center
Fri 08:41:43 PM 37.2689 -122.8108 66° East 342 394 9,600 -984 Descending Oakland Center
Fri 08:42:44 PM 37.2917 -122.7158 73° East 287 330 9,200 -683 Descending Oakland Center
Fri 08:43:46 PM 37.3125 -122.6231 74° East 276 318 8,200 -585 Descending Oakland Center
Fri 08:44:47 PM 37.3350 -122.5253 74° East 286 329 8,000 -98 Descending Oakland Center
Fri 08:45:49 PM 37.3575 -122.4289 74° East 289 333 8,000  Level Oakland Center
Fri 08:46:31 PM 37.3833 -122.3500 68° East 289 333 8,000 -529 Level Northern Cal TRACON
Fri 08:47:31 PM 37.4000 -122.2500 78° East 288 331 7,100 -1,200 Descending Northern Cal TRACON
Fri 08:48:31 PM 37.4000 -122.1500 90° East 279 321 5,600 -1,500 Descending Northern Cal TRACON
Fri 08:49:31 PM 37.4000 -122.0667 90° East 266 306 4,100 -800 Descending Northern Cal TRACON
Fri 08:50:31 PM 37.4667 -122.0167 31° Northeast 254 292 4,000 -50 Descending Northern Cal TRACON
Fri 08:51:31 PM 37.5333 -122.0000 11° North 224 258 4,000  Level Northern Cal TRACON
Fri 08:52:31 PM 37.5833 -121.9833 15° North 188 216 4,000  Level Northern Cal TRACON
Fri 08:53:31 PM 37.6333 -121.9667 15° North 177 204 4,000 -200 Level Northern Cal TRACON
Fri 08:54:31 PM 37.6667 -121.9833 338° Northwest 187 215 3,600 -600 Descending Northern Cal TRACON
Fri 08:55:31 PM 37.6667 -122.0500 270° West 160 184 2,800 -800 Descending Northern Cal TRACON
Fri 08:56:31 PM 37.6833 -122.1000 293° West 159 183 2,000 -850 Descending Northern Cal TRACON
Fri 08:57:31 PM 37.7000 -122.1333 302° West 136 157 1,100 -800 Descending Northern Cal TRACON
Fri 08:58:31 PM 37.7167 -122.1833 293° West 126 145 400 -700 Descending Northern Cal TRACON

Login

Don't have an account? Register now (free) for customized features, flight alerts, and more!